sensor_id;sensor_type;location;lat;lon;timestamp;P1;durP1;ratioP1;P2;durP2;ratioP2
18544;SDS011;9402;51.460;7.276;2023-11-18T00:02:02;73.65;;;28.63;;
18544;SDS011;9402;51.460;7.276;2023-11-18T00:04:04;94.28;;;32.30;;
18544;SDS011;9402;51.460;7.276;2023-11-18T00:06:10;72.95;;;29.45;;
18544;SDS011;9402;51.460;7.276;2023-11-18T00:08:11;92.05;;;33.55;;
18544;SDS011;9402;51.460;7.276;2023-11-18T00:10:13;61.70;;;26.00;;
18544;SDS011;9402;51.460;7.276;2023-11-18T00:12:15;54.88;;;25.38;;
18544;SDS011;9402;51.460;7.276;2023-11-18T00:14:16;56.47;;;27.35;;
18544;SDS011;9402;51.460;7.276;2023-11-18T00:16:18;73.57;;;28.48;;
18544;SDS011;9402;51.460;7.276;2023-11-18T00:18:21;60.30;;;25.95;;
18544;SDS011;9402;51.460;7.276;2023-11-18T00:20:22;57.83;;;27.05;;
18544;SDS011;9402;51.460;7.276;2023-11-18T00:22:24;67.88;;;25.52;;
18544;SDS011;9402;51.460;7.276;2023-11-18T00:24:24;58.17;;;25.27;;
18544;SDS011;9402;51.460;7.276;2023-11-18T00:26:26;72.15;;;28.02;;
18544;SDS011;9402;51.460;7.276;2023-11-18T00:28:27;80.30;;;28.70;;
18544;SDS011;9402;51.460;7.276;2023-11-18T00:30:28;81.60;;;30.30;;
18544;SDS011;9402;51.460;7.276;2023-11-18T00:32:30;64.93;;;27.35;;
18544;SDS011;9402;51.460;7.276;2023-11-18T00:34:33;65.15;;;27.27;;
18544;SDS011;9402;51.460;7.276;2023-11-18T00:36:34;58.20;;;25.83;;
18544;SDS011;9402;51.460;7.276;2023-11-18T00:38:36;62.90;;;27.58;;
18544;SDS011;9402;51.460;7.276;2023-11-18T00:40:37;71.60;;;27.13;;
18544;SDS011;9402;51.460;7.276;2023-11-18T00:42:38;63.35;;;26.88;;
18544;SDS011;9402;51.460;7.276;2023-11-18T00:44:40;64.57;;;24.85;;
18544;SDS011;9402;51.460;7.276;2023-11-18T00:46:42;60.22;;;24.92;;
18544;SDS011;9402;51.460;7.276;2023-11-18T00:48:43;51.15;;;23.63;;
18544;SDS011;9402;51.460;7.276;2023-11-18T00:50:45;48.40;;;24.17;;
18544;SDS011;9402;51.460;7.276;2023-11-18T00:52:47;49.35;;;23.73;;
18544;SDS011;9402;51.460;7.276;2023-11-18T00:54:49;48.03;;;23.58;;
18544;SDS011;9402;51.460;7.276;2023-11-18T00:56:51;46.50;;;21.48;;
18544;SDS011;9402;51.460;7.276;2023-11-18T00:58:53;42.97;;;20.60;;
18544;SDS011;9402;51.460;7.276;2023-11-18T01:00:55;43.58;;;21.33;;
18544;SDS011;9402;51.460;7.276;2023-11-18T01:02:56;46.35;;;20.80;;
18544;SDS011;9402;51.460;7.276;2023-11-18T01:04:58;50.92;;;23.25;;
18544;SDS011;9402;51.460;7.276;2023-11-18T01:07:01;52.17;;;23.95;;
18544;SDS011;9402;51.460;7.276;2023-11-18T01:09:03;50.13;;;22.30;;
18544;SDS011;9402;51.460;7.276;2023-11-18T01:11:06;50.92;;;22.75;;
18544;SDS011;9402;51.460;7.276;2023-11-18T01:13:09;48.75;;;21.05;;
18544;SDS011;9402;51.460;7.276;2023-11-18T01:15:10;56.67;;;21.50;;
18544;SDS011;9402;51.460;7.276;2023-11-18T01:17:12;42.58;;;21.35;;
18544;SDS011;9402;51.460;7.276;2023-11-18T01:19:14;49.97;;;24.13;;
18544;SDS011;9402;51.460;7.276;2023-11-18T01:21:15;45.75;;;22.17;;
18544;SDS011;9402;51.460;7.276;2023-11-18T01:23:19;52.13;;;22.70;;
18544;SDS011;9402;51.460;7.276;2023-11-18T01:25:20;45.35;;;22.05;;
18544;SDS011;9402;51.460;7.276;2023-11-18T01:27:22;51.10;;;23.42;;
18544;SDS011;9402;51.460;7.276;2023-11-18T01:29:23;52.63;;;23.60;;
18544;SDS011;9402;51.460;7.276;2023-11-18T01:31:24;54.08;;;23.08;;
18544;SDS011;9402;51.460;7.276;2023-11-18T01:33:27;48.33;;;22.02;;
18544;SDS011;9402;51.460;7.276;2023-11-18T01:35:28;48.83;;;22.13;;
18544;SDS011;9402;51.460;7.276;2023-11-18T01:37:31;65.38;;;26.40;;
18544;SDS011;9402;51.460;7.276;2023-11-18T01:39:33;51.17;;;22.77;;
18544;SDS011;9402;51.460;7.276;2023-11-18T01:41:35;45.58;;;22.55;;
18544;SDS011;9402;51.460;7.276;2023-11-18T01:43:37;46.33;;;21.70;;
18544;SDS011;9402;51.460;7.276;2023-11-18T01:45:40;54.90;;;23.45;;
18544;SDS011;9402;51.460;7.276;2023-11-18T01:47:42;56.42;;;25.15;;
18544;SDS011;9402;51.460;7.276;2023-11-18T01:49:44;44.95;;;21.33;;
18544;SDS011;9402;51.460;7.276;2023-11-18T01:51:45;45.80;;;23.60;;
18544;SDS011;9402;51.460;7.276;2023-11-18T01:53:47;53.63;;;22.38;;
18544;SDS011;9402;51.460;7.276;2023-11-18T01:55:51;46.33;;;21.27;;
18544;SDS011;9402;51.460;7.276;2023-11-18T01:57:53;38.83;;;21.33;;
18544;SDS011;9402;51.460;7.276;2023-11-18T01:59:56;53.75;;;22.98;;
18544;SDS011;9402;51.460;7.276;2023-11-18T02:01:58;39.83;;;20.27;;
18544;SDS011;9402;51.460;7.276;2023-11-18T02:03:59;45.20;;;21.30;;
18544;SDS011;9402;51.460;7.276;2023-11-18T02:06:01;46.53;;;21.35;;
18544;SDS011;9402;51.460;7.276;2023-11-18T02:08:05;49.38;;;21.88;;
18544;SDS011;9402;51.460;7.276;2023-11-18T02:10:07;46.20;;;21.02;;
18544;SDS011;9402;51.460;7.276;2023-11-18T02:12:14;37.20;;;18.50;;
18544;SDS011;9402;51.460;7.276;2023-11-18T02:14:20;41.17;;;19.77;;
18544;SDS011;9402;51.460;7.276;2023-11-18T02:16:22;45.45;;;19.15;;
18544;SDS011;9402;51.460;7.276;2023-11-18T02:18:25;47.53;;;19.98;;
18544;SDS011;9402;51.460;7.276;2023-11-18T02:20:26;43.45;;;21.48;;
18544;SDS011;9402;51.460;7.276;2023-11-18T02:22:28;42.92;;;20.95;;
18544;SDS011;9402;51.460;7.276;2023-11-18T02:24:30;43.28;;;20.27;;
18544;SDS011;9402;51.460;7.276;2023-11-18T02:26:38;38.38;;;19.25;;
18544;SDS011;9402;51.460;7.276;2023-11-18T02:28:38;47.33;;;21.75;;
18544;SDS011;9402;51.460;7.276;2023-11-18T02:30:49;44.42;;;20.38;;
18544;SDS011;9402;51.460;7.276;2023-11-18T02:32:53;42.20;;;19.92;;
18544;SDS011;9402;51.460;7.276;2023-11-18T02:34:57;50.08;;;23.50;;
18544;SDS011;9402;51.460;7.276;2023-11-18T02:37:02;39.72;;;20.30;;
18544;SDS011;9402;51.460;7.276;2023-11-18T02:39:08;45.35;;;22.85;;
18544;SDS011;9402;51.460;7.276;2023-11-18T02:41:16;44.83;;;21.85;;
18544;SDS011;9402;51.460;7.276;2023-11-18T02:43:20;45.83;;;22.85;;
18544;SDS011;9402;51.460;7.276;2023-11-18T02:45:21;43.15;;;21.20;;
18544;SDS011;9402;51.460;7.276;2023-11-18T02:47:23;46.00;;;22.98;;
18544;SDS011;9402;51.460;7.276;2023-11-18T02:49:25;38.17;;;20.30;;
18544;SDS011;9402;51.460;7.276;2023-11-18T02:51:27;41.15;;;21.02;;
18544;SDS011;9402;51.460;7.276;2023-11-18T02:53:29;41.30;;;19.98;;
18544;SDS011;9402;51.460;7.276;2023-11-18T02:55:31;45.70;;;21.40;;
18544;SDS011;9402;51.460;7.276;2023-11-18T02:57:32;43.70;;;21.98;;
18544;SDS011;9402;51.460;7.276;2023-11-18T02:59:35;45.35;;;21.88;;
18544;SDS011;9402;51.460;7.276;2023-11-18T03:01:37;38.28;;;20.70;;
18544;SDS011;9402;51.460;7.276;2023-11-18T03:03:39;42.15;;;21.58;;
18544;SDS011;9402;51.460;7.276;2023-11-18T03:05:43;44.58;;;21.83;;
18544;SDS011;9402;51.460;7.276;2023-11-18T03:07:44;42.60;;;21.87;;
18544;SDS011;9402;51.460;7.276;2023-11-18T03:09:47;38.47;;;20.70;;
18544;SDS011;9402;51.460;7.276;2023-11-18T03:11:48;39.92;;;18.85;;
18544;SDS011;9402;51.460;7.276;2023-11-18T03:13:51;41.22;;;21.92;;
18544;SDS011;9402;51.460;7.276;2023-11-18T03:15:54;47.20;;;22.85;;
18544;SDS011;9402;51.460;7.276;2023-11-18T03:17:56;51.00;;;23.15;;
18544;SDS011;9402;51.460;7.276;2023-11-18T03:19:56;39.53;;;21.43;;
18544;SDS011;9402;51.460;7.276;2023-11-18T03:21:58;40.40;;;22.05;;
18544;SDS011;9402;51.460;7.276;2023-11-18T03:23:59;38.10;;;20.48;;
18544;SDS011;9402;51.460;7.276;2023-11-18T03:26:01;42.85;;;22.15;;
18544;SDS011;9402;51.460;7.276;2023-11-18T03:28:03;45.13;;;23.08;;
18544;SDS011;9402;51.460;7.276;2023-11-18T03:30:06;36.92;;;19.88;;
18544;SDS011;9402;51.460;7.276;2023-11-18T03:32:10;40.97;;;20.65;;
18544;SDS011;9402;51.460;7.276;2023-11-18T03:34:12;52.08;;;22.65;;
18544;SDS011;9402;51.460;7.276;2023-11-18T03:36:14;42.10;;;21.27;;
18544;SDS011;9402;51.460;7.276;2023-11-18T03:38:17;45.58;;;20.27;;
18544;SDS011;9402;51.460;7.276;2023-11-18T03:40:19;48.95;;;21.58;;
18544;SDS011;9402;51.460;7.276;2023-11-18T03:42:21;36.75;;;19.20;;
18544;SDS011;9402;51.460;7.276;2023-11-18T03:44:23;45.15;;;21.45;;
18544;SDS011;9402;51.460;7.276;2023-11-18T03:46:25;35.35;;;18.98;;
18544;SDS011;9402;51.460;7.276;2023-11-18T03:48:35;43.83;;;22.67;;
18544;SDS011;9402;51.460;7.276;2023-11-18T03:50:37;43.70;;;21.45;;
18544;SDS011;9402;51.460;7.276;2023-11-18T03:52:38;40.50;;;21.08;;
18544;SDS011;9402;51.460;7.276;2023-11-18T03:54:40;42.72;;;20.20;;
18544;SDS011;9402;51.460;7.276;2023-11-18T03:56:42;36.40;;;19.95;;
18544;SDS011;9402;51.460;7.276;2023-11-18T03:58:43;37.92;;;19.48;;
18544;SDS011;9402;51.460;7.276;2023-11-18T04:00:47;39.25;;;18.83;;
18544;SDS011;9402;51.460;7.276;2023-11-18T04:02:49;44.05;;;20.60;;
18544;SDS011;9402;51.460;7.276;2023-11-18T04:04:51;38.95;;;19.25;;
18544;SDS011;9402;51.460;7.276;2023-11-18T04:06:53;40.28;;;20.45;;
18544;SDS011;9402;51.460;7.276;2023-11-18T04:08:55;41.50;;;19.75;;
18544;SDS011;9402;51.460;7.276;2023-11-18T04:10:56;38.28;;;18.88;;
18544;SDS011;9402;51.460;7.276;2023-11-18T04:12:58;37.42;;;20.63;;
18544;SDS011;9402;51.460;7.276;2023-11-18T04:15:00;45.53;;;20.67;;
18544;SDS011;9402;51.460;7.276;2023-11-18T04:17:01;34.05;;;19.35;;
18544;SDS011;9402;51.460;7.276;2023-11-18T04:19:03;31.55;;;18.67;;
18544;SDS011;9402;51.460;7.276;2023-11-18T04:21:06;40.80;;;19.98;;
18544;SDS011;9402;51.460;7.276;2023-11-18T04:23:08;29.67;;;17.83;;
18544;SDS011;9402;51.460;7.276;2023-11-18T04:25:11;37.83;;;20.48;;
18544;SDS011;9402;51.460;7.276;2023-11-18T04:27:13;39.33;;;20.02;;
18544;SDS011;9402;51.460;7.276;2023-11-18T04:29:15;36.15;;;20.70;;
18544;SDS011;9402;51.460;7.276;2023-11-18T04:31:16;40.75;;;21.33;;
18544;SDS011;9402;51.460;7.276;2023-11-18T04:33:18;33.67;;;19.10;;
18544;SDS011;9402;51.460;7.276;2023-11-18T04:35:19;37.33;;;17.58;;
18544;SDS011;9402;51.460;7.276;2023-11-18T04:37:23;29.17;;;15.65;;
18544;SDS011;9402;51.460;7.276;2023-11-18T04:39:25;34.45;;;18.30;;
18544;SDS011;9402;51.460;7.276;2023-11-18T04:41:28;34.80;;;18.40;;
18544;SDS011;9402;51.460;7.276;2023-11-18T04:43:31;27.55;;;16.73;;
18544;SDS011;9402;51.460;7.276;2023-11-18T04:45:33;31.42;;;17.15;;
18544;SDS011;9402;51.460;7.276;2023-11-18T04:47:35;31.35;;;17.33;;
18544;SDS011;9402;51.460;7.276;2023-11-18T04:49:37;44.58;;;19.55;;
18544;SDS011;9402;51.460;7.276;2023-11-18T04:51:39;29.23;;;17.33;;
18544;SDS011;9402;51.460;7.276;2023-11-18T04:53:42;37.40;;;19.30;;
18544;SDS011;9402;51.460;7.276;2023-11-18T04:55:44;33.88;;;18.70;;
18544;SDS011;9402;51.460;7.276;2023-11-18T04:57:46;34.78;;;18.25;;
18544;SDS011;9402;51.460;7.276;2023-11-18T04:59:47;34.42;;;17.90;;
18544;SDS011;9402;51.460;7.276;2023-11-18T05:01:49;28.60;;;16.83;;
18544;SDS011;9402;51.460;7.276;2023-11-18T05:03:53;38.60;;;21.00;;
18544;SDS011;9402;51.460;7.276;2023-11-18T05:05:54;37.22;;;19.63;;
18544;SDS011;9402;51.460;7.276;2023-11-18T05:07:56;39.63;;;18.67;;
18544;SDS011;9402;51.460;7.276;2023-11-18T05:09:59;34.05;;;17.70;;
18544;SDS011;9402;51.460;7.276;2023-11-18T05:12:00;41.20;;;18.80;;
18544;SDS011;9402;51.460;7.276;2023-11-18T05:14:02;36.80;;;19.27;;
18544;SDS011;9402;51.460;7.276;2023-11-18T05:16:03;34.70;;;18.65;;
18544;SDS011;9402;51.460;7.276;2023-11-18T05:18:06;28.15;;;17.33;;
18544;SDS011;9402;51.460;7.276;2023-11-18T05:20:11;31.02;;;17.23;;
18544;SDS011;9402;51.460;7.276;2023-11-18T05:22:13;31.27;;;17.17;;
18544;SDS011;9402;51.460;7.276;2023-11-18T05:24:15;28.65;;;16.65;;
18544;SDS011;9402;51.460;7.276;2023-11-18T05:26:18;34.72;;;19.15;;
18544;SDS011;9402;51.460;7.276;2023-11-18T05:28:20;44.85;;;21.55;;
18544;SDS011;9402;51.460;7.276;2023-11-18T05:30:22;35.97;;;17.42;;
18544;SDS011;9402;51.460;7.276;2023-11-18T05:32:24;34.20;;;17.40;;
18544;SDS011;9402;51.460;7.276;2023-11-18T05:34:28;39.03;;;19.63;;
18544;SDS011;9402;51.460;7.276;2023-11-18T05:36:29;39.88;;;19.50;;
18544;SDS011;9402;51.460;7.276;2023-11-18T05:38:37;33.00;;;17.77;;
18544;SDS011;9402;51.460;7.276;2023-11-18T05:40:38;35.75;;;17.08;;
18544;SDS011;9402;51.460;7.276;2023-11-18T05:42:45;31.25;;;17.67;;
18544;SDS011;9402;51.460;7.276;2023-11-18T05:44:48;42.97;;;19.48;;
18544;SDS011;9402;51.460;7.276;2023-11-18T05:46:57;38.67;;;19.00;;
18544;SDS011;9402;51.460;7.276;2023-11-18T05:49:01;35.97;;;17.30;;
18544;SDS011;9402;51.460;7.276;2023-11-18T05:51:05;32.47;;;17.00;;
18544;SDS011;9402;51.460;7.276;2023-11-18T05:53:06;31.70;;;17.00;;
18544;SDS011;9402;51.460;7.276;2023-11-18T05:55:09;35.65;;;19.42;;
18544;SDS011;9402;51.460;7.276;2023-11-18T05:57:11;31.70;;;17.17;;
18544;SDS011;9402;51.460;7.276;2023-11-18T05:59:14;33.95;;;18.92;;
18544;SDS011;9402;51.460;7.276;2023-11-18T06:01:15;31.13;;;17.95;;
18544;SDS011;9402;51.460;7.276;2023-11-18T06:03:18;37.25;;;18.75;;
18544;SDS011;9402;51.460;7.276;2023-11-18T06:05:20;47.05;;;20.70;;
18544;SDS011;9402;51.460;7.276;2023-11-18T06:07:26;31.33;;;17.63;;
18544;SDS011;9402;51.460;7.276;2023-11-18T06:09:27;28.63;;;16.92;;
18544;SDS011;9402;51.460;7.276;2023-11-18T06:11:29;36.72;;;17.73;;
18544;SDS011;9402;51.460;7.276;2023-11-18T06:13:31;28.58;;;18.00;;
18544;SDS011;9402;51.460;7.276;2023-11-18T06:15:36;31.77;;;18.42;;
18544;SDS011;9402;51.460;7.276;2023-11-18T06:17:38;27.83;;;17.60;;
18544;SDS011;9402;51.460;7.276;2023-11-18T06:19:40;34.22;;;18.38;;
18544;SDS011;9402;51.460;7.276;2023-11-18T06:21:41;34.00;;;19.17;;
18544;SDS011;9402;51.460;7.276;2023-11-18T06:23:43;35.30;;;19.65;;
18544;SDS011;9402;51.460;7.276;2023-11-18T06:25:45;28.70;;;19.13;;
18544;SDS011;9402;51.460;7.276;2023-11-18T06:27:48;33.30;;;19.33;;
18544;SDS011;9402;51.460;7.276;2023-11-18T06:29:50;33.80;;;18.80;;
18544;SDS011;9402;51.460;7.276;2023-11-18T06:31:56;31.42;;;17.17;;
18544;SDS011;9402;51.460;7.276;2023-11-18T06:33:57;28.08;;;17.33;;
18544;SDS011;9402;51.460;7.276;2023-11-18T06:35:59;34.03;;;18.42;;
18544;SDS011;9402;51.460;7.276;2023-11-18T06:38:01;28.92;;;17.27;;
18544;SDS011;9402;51.460;7.276;2023-11-18T06:40:03;32.53;;;18.55;;
18544;SDS011;9402;51.460;7.276;2023-11-18T06:42:16;36.58;;;18.00;;
18544;SDS011;9402;51.460;7.276;2023-11-18T06:44:18;27.60;;;17.70;;
18544;SDS011;9402;51.460;7.276;2023-11-18T06:46:24;38.50;;;18.85;;
18544;SDS011;9402;51.460;7.276;2023-11-18T06:48:28;33.55;;;18.08;;
18544;SDS011;9402;51.460;7.276;2023-11-18T06:50:29;34.63;;;17.48;;
18544;SDS011;9402;51.460;7.276;2023-11-18T06:52:31;30.92;;;17.90;;
18544;SDS011;9402;51.460;7.276;2023-11-18T06:54:35;30.35;;;17.17;;
18544;SDS011;9402;51.460;7.276;2023-11-18T06:56:38;30.73;;;18.67;;
18544;SDS011;9402;51.460;7.276;2023-11-18T06:58:42;31.60;;;17.83;;
18544;SDS011;9402;51.460;7.276;2023-11-18T07:00:44;35.67;;;18.33;;
18544;SDS011;9402;51.460;7.276;2023-11-18T07:02:45;37.42;;;20.00;;
18544;SDS011;9402;51.460;7.276;2023-11-18T07:04:48;35.47;;;17.85;;
18544;SDS011;9402;51.460;7.276;2023-11-18T07:06:50;43.67;;;19.27;;
18544;SDS011;9402;51.460;7.276;2023-11-18T07:08:52;40.80;;;21.05;;
18544;SDS011;9402;51.460;7.276;2023-11-18T07:10:55;34.22;;;19.00;;
18544;SDS011;9402;51.460;7.276;2023-11-18T07:12:56;37.28;;;20.27;;
18544;SDS011;9402;51.460;7.276;2023-11-18T07:14:59;30.10;;;17.80;;
18544;SDS011;9402;51.460;7.276;2023-11-18T07:17:02;33.50;;;19.13;;
18544;SDS011;9402;51.460;7.276;2023-11-18T07:19:05;31.73;;;17.55;;
18544;SDS011;9402;51.460;7.276;2023-11-18T07:21:08;36.67;;;20.42;;
18544;SDS011;9402;51.460;7.276;2023-11-18T07:23:09;36.55;;;19.85;;
18544;SDS011;9402;51.460;7.276;2023-11-18T07:25:12;34.13;;;18.45;;
18544;SDS011;9402;51.460;7.276;2023-11-18T07:27:13;32.75;;;17.40;;
18544;SDS011;9402;51.460;7.276;2023-11-18T07:29:16;37.58;;;19.38;;
18544;SDS011;9402;51.460;7.276;2023-11-18T07:31:17;33.50;;;19.58;;
18544;SDS011;9402;51.460;7.276;2023-11-18T07:33:19;38.00;;;17.73;;
18544;SDS011;9402;51.460;7.276;2023-11-18T07:35:21;33.50;;;18.77;;
18544;SDS011;9402;51.460;7.276;2023-11-18T07:37:24;33.60;;;19.10;;
18544;SDS011;9402;51.460;7.276;2023-11-18T07:39:26;43.03;;;20.55;;
18544;SDS011;9402;51.460;7.276;2023-11-18T07:41:43;32.03;;;17.85;;
18544;SDS011;9402;51.460;7.276;2023-11-18T07:43:45;27.27;;;17.27;;
18544;SDS011;9402;51.460;7.276;2023-11-18T07:45:47;28.63;;;15.95;;
18544;SDS011;9402;51.460;7.276;2023-11-18T07:47:50;36.10;;;18.10;;
18544;SDS011;9402;51.460;7.276;2023-11-18T07:49:52;39.13;;;19.50;;
18544;SDS011;9402;51.460;7.276;2023-11-18T07:51:52;33.33;;;18.13;;
18544;SDS011;9402;51.460;7.276;2023-11-18T07:53:56;33.45;;;17.75;;
18544;SDS011;9402;51.460;7.276;2023-11-18T07:55:58;34.92;;;17.90;;
18544;SDS011;9402;51.460;7.276;2023-11-18T07:58:01;36.80;;;19.08;;
18544;SDS011;9402;51.460;7.276;2023-11-18T08:00:04;30.42;;;17.73;;
18544;SDS011;9402;51.460;7.276;2023-11-18T08:02:09;27.55;;;17.65;;
18544;SDS011;9402;51.460;7.276;2023-11-18T08:04:11;27.33;;;16.10;;
18544;SDS011;9402;51.460;7.276;2023-11-18T08:06:13;28.30;;;16.77;;
18544;SDS011;9402;51.460;7.276;2023-11-18T08:08:15;27.85;;;17.40;;
18544;SDS011;9402;51.460;7.276;2023-11-18T08:10:18;28.50;;;16.23;;
18544;SDS011;9402;51.460;7.276;2023-11-18T08:12:21;28.60;;;15.98;;
18544;SDS011;9402;51.460;7.276;2023-11-18T08:14:23;25.42;;;15.80;;
18544;SDS011;9402;51.460;7.276;2023-11-18T08:16:24;28.47;;;17.07;;
18544;SDS011;9402;51.460;7.276;2023-11-18T08:18:27;30.58;;;17.63;;
18544;SDS011;9402;51.460;7.276;2023-11-18T08:20:31;37.65;;;17.75;;
18544;SDS011;9402;51.460;7.276;2023-11-18T08:22:32;37.80;;;18.33;;
18544;SDS011;9402;51.460;7.276;2023-11-18T08:24:34;28.35;;;16.10;;
18544;SDS011;9402;51.460;7.276;2023-11-18T08:26:38;30.27;;;16.75;;
18544;SDS011;9402;51.460;7.276;2023-11-18T08:28:40;26.65;;;14.70;;
18544;SDS011;9402;51.460;7.276;2023-11-18T08:30:41;25.63;;;14.25;;
18544;SDS011;9402;51.460;7.276;2023-11-18T08:32:44;24.40;;;14.85;;
18544;SDS011;9402;51.460;7.276;2023-11-18T08:34:46;27.13;;;15.73;;
18544;SDS011;9402;51.460;7.276;2023-11-18T08:36:51;26.52;;;14.63;;
18544;SDS011;9402;51.460;7.276;2023-11-18T08:38:53;24.98;;;14.95;;
18544;SDS011;9402;51.460;7.276;2023-11-18T08:40:57;26.70;;;15.43;;
18544;SDS011;9402;51.460;7.276;2023-11-18T08:43:01;26.38;;;13.85;;
18544;SDS011;9402;51.460;7.276;2023-11-18T08:45:07;31.27;;;15.60;;
18544;SDS011;9402;51.460;7.276;2023-11-18T08:47:14;22.25;;;13.25;;
18544;SDS011;9402;51.460;7.276;2023-11-18T08:49:17;18.98;;;12.63;;
18544;SDS011;9402;51.460;7.276;2023-11-18T08:51:21;26.95;;;13.25;;
18544;SDS011;9402;51.460;7.276;2023-11-18T08:53:26;21.25;;;12.40;;
18544;SDS011;9402;51.460;7.276;2023-11-18T08:55:28;23.48;;;13.00;;
18544;SDS011;9402;51.460;7.276;2023-11-18T08:57:39;17.65;;;10.77;;
18544;SDS011;9402;51.460;7.276;2023-11-18T08:59:54;22.15;;;13.05;;
18544;SDS011;9402;51.460;7.276;2023-11-18T09:01:58;22.50;;;12.50;;
18544;SDS011;9402;51.460;7.276;2023-11-18T09:04:05;28.50;;;13.75;;
18544;SDS011;9402;51.460;7.276;2023-11-18T09:06:07;24.55;;;11.88;;
18544;SDS011;9402;51.460;7.276;2023-11-18T09:08:17;22.35;;;12.85;;
18544;SDS011;9402;51.460;7.276;2023-11-18T09:10:19;19.88;;;12.52;;
18544;SDS011;9402;51.460;7.276;2023-11-18T09:12:21;25.77;;;13.13;;
18544;SDS011;9402;51.460;7.276;2023-11-18T09:14:24;16.77;;;11.27;;
18544;SDS011;9402;51.460;7.276;2023-11-18T09:16:27;21.95;;;11.85;;
18544;SDS011;9402;51.460;7.276;2023-11-18T09:18:30;17.55;;;11.07;;
18544;SDS011;9402;51.460;7.276;2023-11-18T09:20:33;15.57;;;10.18;;
18544;SDS011;9402;51.460;7.276;2023-11-18T09:22:33;15.77;;;10.30;;
18544;SDS011;9402;51.460;7.276;2023-11-18T09:24:35;15.55;;;10.55;;
18544;SDS011;9402;51.460;7.276;2023-11-18T09:26:37;17.52;;;9.70;;
18544;SDS011;9402;51.460;7.276;2023-11-18T09:28:39;15.15;;;9.93;;
18544;SDS011;9402;51.460;7.276;2023-11-18T09:30:42;20.80;;;10.35;;
18544;SDS011;9402;51.460;7.276;2023-11-18T09:32:51;13.48;;;9.20;;
18544;SDS011;9402;51.460;7.276;2023-11-18T09:34:54;22.33;;;9.73;;
18544;SDS011;9402;51.460;7.276;2023-11-18T09:36:56;16.77;;;9.45;;
18544;SDS011;9402;51.460;7.276;2023-11-18T09:38:58;20.92;;;9.77;;
18544;SDS011;9402;51.460;7.276;2023-11-18T09:41:03;21.77;;;10.57;;
18544;SDS011;9402;51.460;7.276;2023-11-18T09:43:07;17.13;;;10.52;;
18544;SDS011;9402;51.460;7.276;2023-11-18T09:45:09;10.93;;;9.00;;
18544;SDS011;9402;51.460;7.276;2023-11-18T09:47:20;17.77;;;10.32;;
18544;SDS011;9402;51.460;7.276;2023-11-18T09:49:26;17.42;;;8.95;;
18544;SDS011;9402;51.460;7.276;2023-11-18T09:51:35;15.13;;;9.68;;
18544;SDS011;9402;51.460;7.276;2023-11-18T09:53:39;17.30;;;9.23;;
18544;SDS011;9402;51.460;7.276;2023-11-18T09:55:42;16.02;;;9.82;;
18544;SDS011;9402;51.460;7.276;2023-11-18T09:57:47;17.05;;;9.15;;
18544;SDS011;9402;51.460;7.276;2023-11-18T09:59:58;13.23;;;8.40;;
18544;SDS011;9402;51.460;7.276;2023-11-18T10:02:11;13.18;;;8.70;;
18544;SDS011;9402;51.460;7.276;2023-11-18T10:04:13;18.70;;;9.68;;
18544;SDS011;9402;51.460;7.276;2023-11-18T10:06:19;17.20;;;8.77;;
18544;SDS011;9402;51.460;7.276;2023-11-18T10:08:21;15.95;;;10.35;;
18544;SDS011;9402;51.460;7.276;2023-11-18T10:10:26;16.73;;;10.23;;
18544;SDS011;9402;51.460;7.276;2023-11-18T10:12:36;17.40;;;8.50;;
18544;SDS011;9402;51.460;7.276;2023-11-18T10:14:40;17.40;;;9.25;;
18544;SDS011;9402;51.460;7.276;2023-11-18T10:16:44;28.13;;;10.48;;
18544;SDS011;9402;51.460;7.276;2023-11-18T10:18:46;15.90;;;9.07;;
18544;SDS011;9402;51.460;7.276;2023-11-18T10:20:52;19.85;;;9.65;;
18544;SDS011;9402;51.460;7.276;2023-11-18T10:23:08;14.75;;;9.15;;
18544;SDS011;9402;51.460;7.276;2023-11-18T10:25:10;13.23;;;8.75;;
18544;SDS011;9402;51.460;7.276;2023-11-18T10:27:26;21.02;;;9.20;;
18544;SDS011;9402;51.460;7.276;2023-11-18T10:29:27;14.20;;;8.32;;
18544;SDS011;9402;51.460;7.276;2023-11-18T10:31:30;15.23;;;8.73;;
18544;SDS011;9402;51.460;7.276;2023-11-18T10:33:31;17.58;;;8.85;;
18544;SDS011;9402;51.460;7.276;2023-11-18T10:35:36;17.58;;;7.53;;
18544;SDS011;9402;51.460;7.276;2023-11-18T10:37:37;25.38;;;9.45;;
18544;SDS011;9402;51.460;7.276;2023-11-18T10:39:47;14.15;;;8.27;;
18544;SDS011;9402;51.460;7.276;2023-11-18T10:41:51;14.65;;;7.38;;
18544;SDS011;9402;51.460;7.276;2023-11-18T10:44:04;13.40;;;8.52;;
18544;SDS011;9402;51.460;7.276;2023-11-18T10:46:07;11.50;;;8.15;;
18544;SDS011;9402;51.460;7.276;2023-11-18T10:48:11;12.10;;;7.97;;
18544;SDS011;9402;51.460;7.276;2023-11-18T10:50:16;11.15;;;7.85;;
18544;SDS011;9402;51.460;7.276;2023-11-18T10:52:19;12.02;;;8.05;;
18544;SDS011;9402;51.460;7.276;2023-11-18T10:54:21;12.40;;;8.60;;
18544;SDS011;9402;51.460;7.276;2023-11-18T10:56:24;14.70;;;8.65;;
18544;SDS011;9402;51.460;7.276;2023-11-18T10:58:34;15.20;;;9.07;;
18544;SDS011;9402;51.460;7.276;2023-11-18T11:00:49;15.15;;;7.70;;
18544;SDS011;9402;51.460;7.276;2023-11-18T11:02:57;12.02;;;6.80;;
18544;SDS011;9402;51.460;7.276;2023-11-18T11:04:59;10.52;;;6.72;;
18544;SDS011;9402;51.460;7.276;2023-11-18T11:07:00;11.70;;;7.78;;
18544;SDS011;9402;51.460;7.276;2023-11-18T11:09:02;11.10;;;6.75;;
18544;SDS011;9402;51.460;7.276;2023-11-18T11:11:10;11.73;;;7.13;;
18544;SDS011;9402;51.460;7.276;2023-11-18T11:13:17;13.40;;;7.35;;
18544;SDS011;9402;51.460;7.276;2023-11-18T11:15:20;11.45;;;7.15;;
18544;SDS011;9402;51.460;7.276;2023-11-18T11:17:23;12.30;;;5.78;;
18544;SDS011;9402;51.460;7.276;2023-11-18T11:19:30;16.00;;;7.35;;
18544;SDS011;9402;51.460;7.276;2023-11-18T11:21:40;10.82;;;7.05;;
18544;SDS011;9402;51.460;7.276;2023-11-18T11:23:49;9.63;;;6.35;;
18544;SDS011;9402;51.460;7.276;2023-11-18T11:25:57;18.65;;;6.65;;
18544;SDS011;9402;51.460;7.276;2023-11-18T11:28:07;11.55;;;7.25;;
18544;SDS011;9402;51.460;7.276;2023-11-18T11:30:16;13.80;;;6.85;;
18544;SDS011;9402;51.460;7.276;2023-11-18T11:32:24;10.68;;;6.95;;
18544;SDS011;9402;51.460;7.276;2023-11-18T11:34:30;12.05;;;7.10;;
18544;SDS011;9402;51.460;7.276;2023-11-18T11:36:35;10.20;;;6.38;;
18544;SDS011;9402;51.460;7.276;2023-11-18T11:38:41;15.63;;;7.68;;
18544;SDS011;9402;51.460;7.276;2023-11-18T11:40:46;8.93;;;6.22;;
18544;SDS011;9402;51.460;7.276;2023-11-18T11:42:50;12.13;;;6.18;;
18544;SDS011;9402;51.460;7.276;2023-11-18T11:44:55;10.32;;;6.53;;
18544;SDS011;9402;51.460;7.276;2023-11-18T11:46:59;14.10;;;6.75;;
18544;SDS011;9402;51.460;7.276;2023-11-18T11:49:03;10.35;;;6.80;;
18544;SDS011;9402;51.460;7.276;2023-11-18T11:51:16;16.88;;;7.15;;
18544;SDS011;9402;51.460;7.276;2023-11-18T11:53:22;12.93;;;6.95;;
18544;SDS011;9402;51.460;7.276;2023-11-18T11:55:26;16.75;;;7.35;;
18544;SDS011;9402;51.460;7.276;2023-11-18T11:57:33;18.40;;;9.20;;
18544;SDS011;9402;51.460;7.276;2023-11-18T11:59:53;14.73;;;8.82;;
18544;SDS011;9402;51.460;7.276;2023-11-18T12:01:56;19.70;;;9.27;;
18544;SDS011;9402;51.460;7.276;2023-11-18T12:03:59;23.80;;;8.80;;
18544;SDS011;9402;51.460;7.276;2023-11-18T12:06:06;9.82;;;7.30;;
18544;SDS011;9402;51.460;7.276;2023-11-18T12:08:07;22.58;;;8.73;;
18544;SDS011;9402;51.460;7.276;2023-11-18T12:10:13;15.68;;;9.45;;
18544;SDS011;9402;51.460;7.276;2023-11-18T12:12:21;14.45;;;9.15;;
18544;SDS011;9402;51.460;7.276;2023-11-18T12:14:26;15.88;;;9.50;;
18544;SDS011;9402;51.460;7.276;2023-11-18T12:16:57;14.90;;;9.18;;